메인 페이지
METAR-TAF:

METAR-TAF

공항 :

New Richmond Regional Airport

New Richmond, 위스콘신, 미국

위도: 45-08-54N, 경도: 092-32-17W, 고도: 304m

현재 날씨관측

예보는 24분 전, 22:35시(UTC)에 발표되었습니다.
북북서7kt
온도 -3°C
습도 86%
기압 1027 hPa
시정: 4.0km
고도 1200ft 상공 구름 많음
고도 1800ft 상공 흐림
약한눈

METAR: KRNH 252235Z AUTO 33007KT 2 1/2SM -SN BKN012 OVC018 M03/M05 A3032 RMK AO2 T10301053

시각: 17:59 (22:59 UTC)

예보

예보는 3 시간 17분 전, 19:42시(UTC)에 발표되었습니다.
예보 대상 시간: 25일 20시부터 26일 18시까지 (UTC)
북북서8kt
시정: 2.4km
고도 1500ft 상공 흐림
약한눈, 박무
일시적
25일 20시부터 25일 23시까지 (UTC)
시정: 1.6km
고도 2500ft 상공 흐림
약한눈, 박무
25일 2300시부터 (UTC)
북서7kt
시정: 10km
고도 2000ft 상공 구름 보통
고도 3000ft 상공 흐림
일시적
25일 23시부터 26일 02시까지 (UTC)
시정: 1.6km
약한눈, 박무
26일 0600시부터 (UTC)
서북서6kt
시정: 10km
고도 3000ft 상공 구름 보통
고도 10000ft 상공 흐림

TAF: KRNH 251942Z 2520/2618 33008KT 1 1/2SM -SN BR OVC015 TEMPO 2520/2523 4SM -SN BR OVC025 FM252300 32007KT P6SM SCT020 OVC030 TEMPO 2523/2602 4SM -SN BR FM260600 30006KT P6SM SCT030 OVC100

4,000개 이상의 공항 관측 자료 및 예보 (METAR 및 TAF 보고).

지도상에서 검색 가능한 기상관측소가 노란 점과 빨간 점으로 표시되어 있습니다.

기상관측소 명을 보려면 표시 위로 마우스를 이동하세요.

날씨 관측과 예보를 보려면 클릭하세요.

지도 변경 : 확대하려면 엑스 표시가 있는 녹색 버튼, 축소하려면 빼기 표시가 있는 녹색 버튼, 다음 페이지의 지도를 보려면 녹색 화살표를 클릭하세요.


METAR-TAF: